sensor_id;sensor_type;location;lat;lon;timestamp;pressure;altitude;pressure_sealevel;temperature;humidity
28008;BME280;15333;50.010;20.020;2023-03-05T00:00:03;98436.19;;;1.03;92.68
28008;BME280;15333;50.010;20.020;2023-03-05T00:03:33;98435.34;;;1.02;94.40
28008;BME280;15333;50.010;20.020;2023-03-05T00:06:35;98428.91;;;0.89;94.19
28008;BME280;15333;50.010;20.020;2023-03-05T00:09:35;98438.91;;;1.01;93.52
28008;BME280;15333;50.010;20.020;2023-03-05T00:12:36;98434.53;;;1.00;93.33
28008;BME280;15333;50.010;20.020;2023-03-05T00:15:40;98428.03;;;0.89;93.32
28008;BME280;15333;50.010;20.020;2023-03-05T00:18:42;98431.78;;;0.83;94.10
28008;BME280;15333;50.010;20.020;2023-03-05T00:21:44;98419.53;;;0.82;94.29
28008;BME280;15333;50.010;20.020;2023-03-05T00:24:45;98421.63;;;0.94;94.36
28008;BME280;15333;50.010;20.020;2023-03-05T00:27:46;98432.59;;;0.85;94.93
28008;BME280;15333;50.010;20.020;2023-03-05T00:30:47;98434.28;;;0.86;94.86
28008;BME280;15333;50.010;20.020;2023-03-05T00:33:52;98427.81;;;0.93;94.38
28008;BME280;15333;50.010;20.020;2023-03-05T00:36:53;98417.72;;;0.84;93.64
28008;BME280;15333;50.010;20.020;2023-03-05T00:39:54;98414.16;;;0.85;94.04
28008;BME280;15333;50.010;20.020;2023-03-05T00:42:55;98412.97;;;0.92;93.53
28008;BME280;15333;50.010;20.020;2023-03-05T00:45:56;98409.81;;;0.84;93.44
28008;BME280;15333;50.010;20.020;2023-03-05T00:48:57;98407.34;;;0.79;91.36
28008;BME280;15333;50.010;20.020;2023-03-05T00:51:59;98400.31;;;0.80;89.96
28008;BME280;15333;50.010;20.020;2023-03-05T00:55:00;98400.13;;;0.85;87.27
28008;BME280;15333;50.010;20.020;2023-03-05T00:58:01;98397.81;;;0.77;87.71
28008;BME280;15333;50.010;20.020;2023-03-05T01:01:03;98394.00;;;0.84;87.22
28008;BME280;15333;50.010;20.020;2023-03-05T01:04:04;98395.31;;;0.74;86.98
28008;BME280;15333;50.010;20.020;2023-03-05T01:07:05;98397.41;;;0.86;87.98
28008;BME280;15333;50.010;20.020;2023-03-05T01:10:11;98392.28;;;0.83;88.24
28008;BME280;15333;50.010;20.020;2023-03-05T01:13:12;98397.56;;;0.83;89.36
28008;BME280;15333;50.010;20.020;2023-03-05T01:16:13;98397.66;;;0.80;89.52
28008;BME280;15333;50.010;20.020;2023-03-05T01:19:14;98396.09;;;0.76;91.25
28008;BME280;15333;50.010;20.020;2023-03-05T01:22:16;98395.72;;;0.85;93.11
28008;BME280;15333;50.010;20.020;2023-03-05T01:25:17;98393.84;;;0.87;93.44
28008;BME280;15333;50.010;20.020;2023-03-05T01:28:18;98392.00;;;0.89;93.89
28008;BME280;15333;50.010;20.020;2023-03-05T01:31:19;98399.00;;;0.90;94.19
28008;BME280;15333;50.010;20.020;2023-03-05T01:34:20;98399.53;;;0.78;93.20
28008;BME280;15333;50.010;20.020;2023-03-05T01:37:22;98399.13;;;0.87;92.84
28008;BME280;15333;50.010;20.020;2023-03-05T01:40:25;98395.94;;;0.79;93.74
28008;BME280;15333;50.010;20.020;2023-03-05T01:43:28;98401.00;;;0.85;93.31
28008;BME280;15333;50.010;20.020;2023-03-05T01:46:36;98393.59;;;0.73;91.05
28008;BME280;15333;50.010;20.020;2023-03-05T01:49:39;98393.19;;;0.62;86.27
28008;BME280;15333;50.010;20.020;2023-03-05T01:52:44;98398.63;;;0.57;81.41
28008;BME280;15333;50.010;20.020;2023-03-05T01:55:45;98392.41;;;0.60;80.83
28008;BME280;15333;50.010;20.020;2023-03-05T01:58:46;98386.22;;;0.61;76.17
28008;BME280;15333;50.010;20.020;2023-03-05T02:01:49;98390.69;;;0.59;74.22
28008;BME280;15333;50.010;20.020;2023-03-05T02:05:03;98390.03;;;0.54;73.54
28008;BME280;15333;50.010;20.020;2023-03-05T02:08:09;98398.19;;;0.48;73.16
28008;BME280;15333;50.010;20.020;2023-03-05T02:11:10;98392.25;;;0.43;72.72
28008;BME280;15333;50.010;20.020;2023-03-05T02:14:11;98392.13;;;0.46;73.30
28008;BME280;15333;50.010;20.020;2023-03-05T02:17:13;98382.81;;;0.37;74.24
28008;BME280;15333;50.010;20.020;2023-03-05T02:20:18;98380.28;;;0.35;72.86
28008;BME280;15333;50.010;20.020;2023-03-05T02:23:20;98395.31;;;0.32;73.17
28008;BME280;15333;50.010;20.020;2023-03-05T02:26:22;98395.38;;;0.30;72.82
28008;BME280;15333;50.010;20.020;2023-03-05T02:29:23;98382.66;;;0.42;74.22
28008;BME280;15333;50.010;20.020;2023-03-05T02:32:24;98385.66;;;0.32;74.61
28008;BME280;15333;50.010;20.020;2023-03-05T02:35:26;98386.03;;;0.44;76.42
28008;BME280;15333;50.010;20.020;2023-03-05T02:38:28;98381.97;;;0.36;76.21
28008;BME280;15333;50.010;20.020;2023-03-05T02:41:29;98387.63;;;0.27;73.31
28008;BME280;15333;50.010;20.020;2023-03-05T02:44:32;98387.63;;;0.27;71.45
28008;BME280;15333;50.010;20.020;2023-03-05T02:47:33;98381.44;;;0.28;72.52
28008;BME280;15333;50.010;20.020;2023-03-05T02:50:34;98379.59;;;0.30;72.00
28008;BME280;15333;50.010;20.020;2023-03-05T02:53:36;98370.22;;;0.23;71.36
28008;BME280;15333;50.010;20.020;2023-03-05T02:56:37;98375.63;;;0.20;71.52
28008;BME280;15333;50.010;20.020;2023-03-05T02:59:39;98366.28;;;0.13;71.84
28008;BME280;15333;50.010;20.020;2023-03-05T03:02:43;98364.50;;;0.14;71.99
28008;BME280;15333;50.010;20.020;2023-03-05T03:05:44;98367.03;;;0.15;70.06
28008;BME280;15333;50.010;20.020;2023-03-05T03:08:45;98366.34;;;0.12;69.38
28008;BME280;15333;50.010;20.020;2023-03-05T03:11:46;98366.69;;;0.24;68.95
28008;BME280;15333;50.010;20.020;2023-03-05T03:14:47;98365.47;;;0.11;70.42
28008;BME280;15333;50.010;20.020;2023-03-05T03:17:48;98365.38;;;0.14;70.81
28008;BME280;15333;50.010;20.020;2023-03-05T03:20:49;98360.94;;;0.15;70.59
28008;BME280;15333;50.010;20.020;2023-03-05T03:23:50;98354.84;;;0.14;69.08
28008;BME280;15333;50.010;20.020;2023-03-05T03:26:50;98363.50;;;0.16;68.50
28008;BME280;15333;50.010;20.020;2023-03-05T03:29:52;98365.47;;;0.11;69.06
28008;BME280;15333;50.010;20.020;2023-03-05T03:32:52;98362.59;;;0.17;68.54
28008;BME280;15333;50.010;20.020;2023-03-05T03:35:53;98364.25;;;0.20;68.66
28008;BME280;15333;50.010;20.020;2023-03-05T03:38:54;98353.53;;;0.24;70.61
28008;BME280;15333;50.010;20.020;2023-03-05T03:41:55;98351.09;;;0.20;72.55
28008;BME280;15333;50.010;20.020;2023-03-05T03:44:56;98355.19;;;0.05;73.41
28008;BME280;15333;50.010;20.020;2023-03-05T03:47:57;98350.59;;;0.10;75.19
28008;BME280;15333;50.010;20.020;2023-03-05T03:50:58;98347.06;;;0.11;75.59
28008;BME280;15333;50.010;20.020;2023-03-05T03:53:59;98341.38;;;0.00;77.53
28008;BME280;15333;50.010;20.020;2023-03-05T03:57:00;98330.72;;;0.03;79.93
28008;BME280;15333;50.010;20.020;2023-03-05T04:00:03;98332.34;;;0.07;79.61
28008;BME280;15333;50.010;20.020;2023-03-05T04:03:12;98341.38;;;0.00;80.89
28008;BME280;15333;50.010;20.020;2023-03-05T04:06:13;98341.75;;;-0.09;82.17
28008;BME280;15333;50.010;20.020;2023-03-05T04:09:14;98331.94;;;-0.06;83.84
28008;BME280;15333;50.010;20.020;2023-03-05T04:12:15;98328.41;;;-0.26;85.50
28008;BME280;15333;50.010;20.020;2023-03-05T04:15:18;98320.16;;;-0.17;85.84
28008;BME280;15333;50.010;20.020;2023-03-05T04:18:19;98326.22;;;-0.15;87.95
28008;BME280;15333;50.010;20.020;2023-03-05T04:21:20;98324.16;;;-0.29;88.88
28008;BME280;15333;50.010;20.020;2023-03-05T04:24:21;98313.94;;;-0.15;87.67
28008;BME280;15333;50.010;20.020;2023-03-05T04:27:22;98316.78;;;-0.21;85.87
28008;BME280;15333;50.010;20.020;2023-03-05T04:30:23;98305.53;;;-0.24;86.67
28008;BME280;15333;50.010;20.020;2023-03-05T04:33:24;98308.84;;;-0.41;83.13
28008;BME280;15333;50.010;20.020;2023-03-05T04:36:25;98303.78;;;-0.24;82.65
28008;BME280;15333;50.010;20.020;2023-03-05T04:39:26;98305.03;;;-0.34;82.69
28008;BME280;15333;50.010;20.020;2023-03-05T04:42:27;98301.00;;;-0.43;81.73
28008;BME280;15333;50.010;20.020;2023-03-05T04:45:28;98299.06;;;-0.37;81.94
28008;BME280;15333;50.010;20.020;2023-03-05T04:48:29;98308.72;;;-0.38;82.91
28008;BME280;15333;50.010;20.020;2023-03-05T04:51:30;98306.19;;;-0.63;84.88
28008;BME280;15333;50.010;20.020;2023-03-05T04:54:31;98307.09;;;-0.64;84.15
28008;BME280;15333;50.010;20.020;2023-03-05T04:57:32;98307.94;;;-0.63;85.53
28008;BME280;15333;50.010;20.020;2023-03-05T05:00:34;98303.69;;;-0.66;87.93
28008;BME280;15333;50.010;20.020;2023-03-05T05:03:35;98311.72;;;-0.70;89.08
28008;BME280;15333;50.010;20.020;2023-03-05T05:06:36;98296.72;;;-0.67;89.15
28008;BME280;15333;50.010;20.020;2023-03-05T05:09:37;98300.25;;;-0.68;90.54
28008;BME280;15333;50.010;20.020;2023-03-05T05:12:41;98305.84;;;-0.77;92.17
28008;BME280;15333;50.010;20.020;2023-03-05T05:15:41;98285.47;;;-0.70;91.30
28008;BME280;15333;50.010;20.020;2023-03-05T05:18:42;98291.81;;;-0.76;92.11
28008;BME280;15333;50.010;20.020;2023-03-05T05:21:43;98286.44;;;-0.73;89.62
28008;BME280;15333;50.010;20.020;2023-03-05T05:24:44;98291.38;;;-0.87;91.57
28008;BME280;15333;50.010;20.020;2023-03-05T05:27:45;98279.25;;;-0.91;92.05
28008;BME280;15333;50.010;20.020;2023-03-05T05:30:46;98277.75;;;-0.75;91.84
28008;BME280;15333;50.010;20.020;2023-03-05T05:33:47;98275.81;;;-0.70;92.28
28008;BME280;15333;50.010;20.020;2023-03-05T05:36:48;98269.09;;;-0.77;94.28
28008;BME280;15333;50.010;20.020;2023-03-05T05:39:49;98276.72;;;-0.71;94.81
28008;BME280;15333;50.010;20.020;2023-03-05T05:42:50;98277.53;;;-0.69;96.12
28008;BME280;15333;50.010;20.020;2023-03-05T05:45:51;98272.28;;;-0.47;96.72
28008;BME280;15333;50.010;20.020;2023-03-05T05:48:52;98269.03;;;-0.54;98.55
28008;BME280;15333;50.010;20.020;2023-03-05T05:51:53;98262.81;;;-0.51;99.48
28008;BME280;15333;50.010;20.020;2023-03-05T05:54:54;98271.78;;;-0.57;99.50
28008;BME280;15333;50.010;20.020;2023-03-05T05:57:55;98279.50;;;-0.52;100.00
28008;BME280;15333;50.010;20.020;2023-03-05T06:00:56;98287.94;;;-0.44;99.09
28008;BME280;15333;50.010;20.020;2023-03-05T06:03:57;98287.09;;;-0.45;98.63
28008;BME280;15333;50.010;20.020;2023-03-05T06:06:58;98299.06;;;-0.37;98.22
28008;BME280;15333;50.010;20.020;2023-03-05T06:09:59;98297.72;;;-0.48;98.95
28008;BME280;15333;50.010;20.020;2023-03-05T06:13:00;98301.00;;;-0.43;99.78
28008;BME280;15333;50.010;20.020;2023-03-05T06:16:04;98304.19;;;-0.34;99.31
28008;BME280;15333;50.010;20.020;2023-03-05T06:19:05;98310.59;;;-0.42;100.00
28008;BME280;15333;50.010;20.020;2023-03-05T06:22:06;98311.75;;;-0.49;99.22
28008;BME280;15333;50.010;20.020;2023-03-05T06:25:08;98311.75;;;-0.49;99.36
28008;BME280;15333;50.010;20.020;2023-03-05T06:28:09;98308.78;;;-0.40;99.42
28008;BME280;15333;50.010;20.020;2023-03-05T06:31:13;98321.31;;;-0.24;99.35
28008;BME280;15333;50.010;20.020;2023-03-05T06:34:14;98308.97;;;-0.22;98.80
28008;BME280;15333;50.010;20.020;2023-03-05T06:37:15;98297.00;;;-0.29;98.32
28008;BME280;15333;50.010;20.020;2023-03-05T06:40:16;98297.00;;;-0.29;98.85
28008;BME280;15333;50.010;20.020;2023-03-05T06:43:17;98291.59;;;-0.26;98.69
28008;BME280;15333;50.010;20.020;2023-03-05T06:46:21;98291.75;;;-0.29;100.00
28008;BME280;15333;50.010;20.020;2023-03-05T06:49:22;98282.44;;;-0.16;100.00
28008;BME280;15333;50.010;20.020;2023-03-05T06:52:23;98285.00;;;-0.15;100.00
28008;BME280;15333;50.010;20.020;2023-03-05T06:55:24;98283.09;;;-0.11;100.00
28008;BME280;15333;50.010;20.020;2023-03-05T06:58:25;98280.56;;;-0.14;100.00
28008;BME280;15333;50.010;20.020;2023-03-05T07:01:26;98283.91;;;-0.09;100.00
28008;BME280;15333;50.010;20.020;2023-03-05T07:04:26;98280.34;;;-0.08;100.00
28008;BME280;15333;50.010;20.020;2023-03-05T07:07:27;98273.50;;;-0.12;100.00
28008;BME280;15333;50.010;20.020;2023-03-05T07:10:29;98280.56;;;-0.14;100.00
28008;BME280;15333;50.010;20.020;2023-03-05T07:13:30;98282.28;;;-0.13;100.00
28008;BME280;15333;50.010;20.020;2023-03-05T07:16:32;98277.44;;;-0.22;100.00
28008;BME280;15333;50.010;20.020;2023-03-05T07:19:33;98274.28;;;-0.10;100.00
28008;BME280;15333;50.010;20.020;2023-03-05T07:22:36;98273.38;;;-0.09;100.00
28008;BME280;15333;50.010;20.020;2023-03-05T07:25:38;98268.88;;;-0.07;100.00
28008;BME280;15333;50.010;20.020;2023-03-05T07:28:39;98264.44;;;-0.05;100.00
28008;BME280;15333;50.010;20.020;2023-03-05T07:31:40;98268.66;;;-0.01;100.00
28008;BME280;15333;50.010;20.020;2023-03-05T07:34:41;98256.03;;;0.07;100.00
28008;BME280;15333;50.010;20.020;2023-03-05T07:37:42;98256.63;;;0.14;100.00
28008;BME280;15333;50.010;20.020;2023-03-05T07:40:43;98262.94;;;0.10;100.00
28008;BME280;15333;50.010;20.020;2023-03-05T07:43:45;98259.72;;;0.23;100.00
28008;BME280;15333;50.010;20.020;2023-03-05T07:46:46;98261.69;;;0.18;100.00
28008;BME280;15333;50.010;20.020;2023-03-05T07:49:47;98257.34;;;0.37;100.00
28008;BME280;15333;50.010;20.020;2023-03-05T07:52:48;98244.44;;;0.52;98.24
28008;BME280;15333;50.010;20.020;2023-03-05T07:55:50;98248.78;;;0.53;97.51
28008;BME280;15333;50.010;20.020;2023-03-05T07:58:51;98249.69;;;0.52;97.69
28008;BME280;15333;50.010;20.020;2023-03-05T08:01:52;98240.59;;;0.59;96.72
28008;BME280;15333;50.010;20.020;2023-03-05T08:04:53;98232.31;;;0.68;96.28
28008;BME280;15333;50.010;20.020;2023-03-05T08:07:54;98228.19;;;0.81;95.87
28008;BME280;15333;50.010;20.020;2023-03-05T08:10:54;98221.88;;;0.85;95.11
28008;BME280;15333;50.010;20.020;2023-03-05T08:13:56;98228.28;;;0.98;93.87
28008;BME280;15333;50.010;20.020;2023-03-05T08:16:58;98217.88;;;0.95;93.15
28008;BME280;15333;50.010;20.020;2023-03-05T08:19:59;98218.38;;;1.03;93.78
28008;BME280;15333;50.010;20.020;2023-03-05T08:23:04;98213.31;;;1.17;93.74
28008;BME280;15333;50.010;20.020;2023-03-05T08:26:18;98211.59;;;1.16;92.66
28008;BME280;15333;50.010;20.020;2023-03-05T08:29:19;98213.94;;;1.23;92.01
28008;BME280;15333;50.010;20.020;2023-03-05T08:32:21;98201.88;;;1.36;91.51
28008;BME280;15333;50.010;20.020;2023-03-05T08:35:22;98206.63;;;1.10;91.32
28008;BME280;15333;50.010;20.020;2023-03-05T08:38:23;98205.75;;;1.29;91.09
28008;BME280;15333;50.010;20.020;2023-03-05T08:41:23;98205.31;;;1.38;90.65
28008;BME280;15333;50.010;20.020;2023-03-05T08:44:25;98195.94;;;1.32;89.30
28008;BME280;15333;50.010;20.020;2023-03-05T08:47:26;98208.91;;;1.18;89.40
28008;BME280;15333;50.010;20.020;2023-03-05T08:50:27;98192.91;;;1.40;88.47
28008;BME280;15333;50.010;20.020;2023-03-05T08:53:28;98193.91;;;1.56;86.90
28008;BME280;15333;50.010;20.020;2023-03-05T08:56:29;98191.88;;;1.61;86.00
28008;BME280;15333;50.010;20.020;2023-03-05T08:59:31;98199.16;;;1.56;86.04
28008;BME280;15333;50.010;20.020;2023-03-05T09:02:32;98201.16;;;1.51;84.97
28008;BME280;15333;50.010;20.020;2023-03-05T09:05:34;98185.19;;;1.54;84.73
28008;BME280;15333;50.010;20.020;2023-03-05T09:08:35;98195.56;;;1.57;84.77
28008;BME280;15333;50.010;20.020;2023-03-05T09:11:36;98184.13;;;1.75;83.92
28008;BME280;15333;50.010;20.020;2023-03-05T09:14:39;98185.09;;;1.91;83.38
28008;BME280;15333;50.010;20.020;2023-03-05T09:17:40;98175.75;;;2.02;81.97
28008;BME280;15333;50.010;20.020;2023-03-05T09:20:42;98190.66;;;2.20;81.79
28008;BME280;15333;50.010;20.020;2023-03-05T09:23:43;98186.63;;;2.13;80.49
28008;BME280;15333;50.010;20.020;2023-03-05T09:26:44;98180.56;;;1.93;81.83
28008;BME280;15333;50.010;20.020;2023-03-05T09:29:45;98177.13;;;2.26;81.91
28008;BME280;15333;50.010;20.020;2023-03-05T09:32:46;98175.94;;;2.64;81.55
28008;BME280;15333;50.010;20.020;2023-03-05T09:35:47;98164.19;;;2.54;81.38
28008;BME280;15333;50.010;20.020;2023-03-05T09:38:48;98162.25;;;2.73;80.70
28008;BME280;15333;50.010;20.020;2023-03-05T09:45:35;98164.56;;;2.80;80.74
28008;BME280;15333;50.010;20.020;2023-03-05T09:51:54;98148.03;;;2.92;81.79
28008;BME280;15333;50.010;20.020;2023-03-05T09:55:00;98144.03;;;3.00;81.07
28008;BME280;15333;50.010;20.020;2023-03-05T09:58:14;98149.72;;;2.93;81.93
28008;BME280;15333;50.010;20.020;2023-03-05T10:01:39;98133.88;;;2.93;82.03
28008;BME280;15333;50.010;20.020;2023-03-05T10:04:47;98141.56;;;2.82;82.57
28008;BME280;15333;50.010;20.020;2023-03-05T10:07:55;98132.00;;;2.95;81.96
28008;BME280;15333;50.010;20.020;2023-03-05T10:10:58;98128.59;;;2.77;82.70
28008;BME280;15333;50.010;20.020;2023-03-05T10:14:02;98130.13;;;2.81;84.32
28008;BME280;15333;50.010;20.020;2023-03-05T10:17:20;98128.00;;;3.19;82.02
28008;BME280;15333;50.010;20.020;2023-03-05T10:40:16;98104.66;;;3.71;80.25
28008;BME280;15333;50.010;20.020;2023-03-05T10:46:36;98099.72;;;3.35;79.79
28008;BME280;15333;50.010;20.020;2023-03-05T10:49:50;98100.03;;;3.61;79.84
28008;BME280;15333;50.010;20.020;2023-03-05T10:53:09;98105.78;;;3.37;79.60
28008;BME280;15333;50.010;20.020;2023-03-05T10:56:14;98102.97;;;3.40;78.13
28008;BME280;15333;50.010;20.020;2023-03-05T10:59:15;98095.50;;;3.33;79.24
28008;BME280;15333;50.010;20.020;2023-03-05T11:02:17;98088.66;;;3.29;78.68
28008;BME280;15333;50.010;20.020;2023-03-05T11:08:38;98083.06;;;2.88;80.01
28008;BME280;15333;50.010;20.020;2023-03-05T11:11:39;98083.78;;;2.75;81.76
28008;BME280;15333;50.010;20.020;2023-03-05T11:17:46;98083.28;;;2.36;84.65
28008;BME280;15333;50.010;20.020;2023-03-05T11:20:49;98083.31;;;2.03;89.98
28008;BME280;15333;50.010;20.020;2023-03-05T11:24:22;98086.50;;;1.92;92.91
28008;BME280;15333;50.010;20.020;2023-03-05T11:27:37;98094.59;;;1.72;95.35
28008;BME280;15333;50.010;20.020;2023-03-05T11:30:39;98077.25;;;1.68;97.35
28008;BME280;15333;50.010;20.020;2023-03-05T11:33:54;98080.50;;;1.56;98.51
28008;BME280;15333;50.010;20.020;2023-03-05T11:40:17;98074.97;;;1.43;95.80
28008;BME280;15333;50.010;20.020;2023-03-05T11:43:22;98071.81;;;1.37;96.02
28008;BME280;15333;50.010;20.020;2023-03-05T11:46:24;98077.38;;;1.31;97.75
28008;BME280;15333;50.010;20.020;2023-03-05T11:49:28;98080.41;;;1.23;98.98
28008;BME280;15333;50.010;20.020;2023-03-05T11:52:35;98074.50;;;1.18;99.56
28008;BME280;15333;50.010;20.020;2023-03-05T11:55:45;98066.38;;;1.23;100.00
28008;BME280;15333;50.010;20.020;2023-03-05T12:01:59;98076.63;;;0.93;100.00
28008;BME280;15333;50.010;20.020;2023-03-05T12:05:00;98067.91;;;1.09;100.00
28008;BME280;15333;50.010;20.020;2023-03-05T12:08:03;98068.22;;;1.03;100.00
28008;BME280;15333;50.010;20.020;2023-03-05T12:11:20;98056.56;;;0.90;95.83
28008;BME280;15333;50.010;20.020;2023-03-05T12:14:27;98058.41;;;0.88;91.87
28008;BME280;15333;50.010;20.020;2023-03-05T12:17:41;98057.66;;;1.03;92.08
28008;BME280;15333;50.010;20.020;2023-03-05T12:21:13;98053.59;;;0.79;92.76
28008;BME280;15333;50.010;20.020;2023-03-05T12:27:35;98056.25;;;0.60;96.05
28008;BME280;15333;50.010;20.020;2023-03-05T12:33:39;98043.81;;;0.64;95.37
28008;BME280;15333;50.010;20.020;2023-03-05T12:36:41;98048.34;;;0.60;94.63
28008;BME280;15333;50.010;20.020;2023-03-05T12:39:46;98039.56;;;0.78;93.69
28008;BME280;15333;50.010;20.020;2023-03-05T12:46:25;98033.34;;;0.98;91.67
28008;BME280;15333;50.010;20.020;2023-03-05T12:49:27;98033.13;;;1.20;90.67
28008;BME280;15333;50.010;20.020;2023-03-05T12:52:31;98026.91;;;1.38;89.88
28008;BME280;15333;50.010;20.020;2023-03-05T12:58:43;98024.50;;;1.51;89.17
28008;BME280;15333;50.010;20.020;2023-03-05T13:01:47;98026.53;;;1.63;88.87
28008;BME280;15333;50.010;20.020;2023-03-05T13:04:52;98026.66;;;1.60;88.46
28008;BME280;15333;50.010;20.020;2023-03-05T13:11:20;98028.03;;;1.84;88.77
28008;BME280;15333;50.010;20.020;2023-03-05T13:14:29;98022.41;;;1.57;89.60
28008;BME280;15333;50.010;20.020;2023-03-05T13:20:40;98022.66;;;1.53;89.71
28008;BME280;15333;50.010;20.020;2023-03-05T13:23:47;98023.34;;;1.39;91.52
28008;BME280;15333;50.010;20.020;2023-03-05T13:26:49;98024.34;;;1.37;91.58
28008;BME280;15333;50.010;20.020;2023-03-05T13:29:50;98023.03;;;1.11;92.95
28008;BME280;15333;50.010;20.020;2023-03-05T13:32:56;98020.94;;;1.17;93.95
28008;BME280;15333;50.010;20.020;2023-03-05T13:36:00;98013.03;;;1.17;94.11
28008;BME280;15333;50.010;20.020;2023-03-05T13:39:01;98017.69;;;1.47;93.49
28008;BME280;15333;50.010;20.020;2023-03-05T13:42:05;98013.34;;;1.46;93.07
28008;BME280;15333;50.010;20.020;2023-03-05T13:45:28;98011.31;;;1.51;92.93
28008;BME280;15333;50.010;20.020;2023-03-05T13:48:29;98012.09;;;1.53;92.57
28008;BME280;15333;50.010;20.020;2023-03-05T13:51:44;98008.06;;;1.46;92.65
28008;BME280;15333;50.010;20.020;2023-03-05T13:54:45;98005.59;;;1.26;92.50
28008;BME280;15333;50.010;20.020;2023-03-05T13:57:49;97998.63;;;1.25;92.38
28008;BME280;15333;50.010;20.020;2023-03-05T14:01:02;97995.38;;;1.20;92.22
28008;BME280;15333;50.010;20.020;2023-03-05T14:04:16;97996.44;;;1.15;93.23
28008;BME280;15333;50.010;20.020;2023-03-05T14:07:30;97992.66;;;1.21;92.09
28008;BME280;15333;50.010;20.020;2023-03-05T14:10:38;97996.03;;;1.57;90.69
28008;BME280;15333;50.010;20.020;2023-03-05T14:13:39;97991.31;;;1.80;89.56
28008;BME280;15333;50.010;20.020;2023-03-05T14:16:40;97978.78;;;2.01;88.18
28008;BME280;15333;50.010;20.020;2023-03-05T14:19:41;97979.31;;;2.23;86.64
28008;BME280;15333;50.010;20.020;2023-03-05T14:22:44;97974.16;;;1.88;87.38
28008;BME280;15333;50.010;20.020;2023-03-05T14:25:46;97970.94;;;1.99;87.08
28008;BME280;15333;50.010;20.020;2023-03-05T14:29:12;97968.56;;;1.94;86.40
28008;BME280;15333;50.010;20.020;2023-03-05T14:32:26;97964.84;;;1.99;84.62
28008;BME280;15333;50.010;20.020;2023-03-05T14:35:30;97961.22;;;2.00;83.65
28008;BME280;15333;50.010;20.020;2023-03-05T14:38:32;97969.78;;;2.05;83.01
28008;BME280;15333;50.010;20.020;2023-03-05T14:41:40;97961.59;;;2.09;82.82
28008;BME280;15333;50.010;20.020;2023-03-05T14:44:41;97964.97;;;1.95;82.80
28008;BME280;15333;50.010;20.020;2023-03-05T14:47:44;97958.19;;;1.91;83.11
28008;BME280;15333;50.010;20.020;2023-03-05T14:50:53;97956.28;;;1.93;83.79
28008;BME280;15333;50.010;20.020;2023-03-05T14:53:56;97954.91;;;1.86;83.48
28008;BME280;15333;50.010;20.020;2023-03-05T14:56:58;97961.31;;;1.82;82.55
28008;BME280;15333;50.010;20.020;2023-03-05T14:59:59;97973.03;;;1.77;82.64
28008;BME280;15333;50.010;20.020;2023-03-05T15:03:00;97975.91;;;1.72;80.02
28008;BME280;15333;50.010;20.020;2023-03-05T15:06:01;97969.34;;;1.64;78.62
28008;BME280;15333;50.010;20.020;2023-03-05T15:09:04;97969.34;;;1.64;77.48
28008;BME280;15333;50.010;20.020;2023-03-05T15:12:05;97971.75;;;1.68;76.20
28008;BME280;15333;50.010;20.020;2023-03-05T15:15:07;97957.13;;;1.78;76.16
28008;BME280;15333;50.010;20.020;2023-03-05T15:18:11;97955.44;;;1.77;75.03
28008;BME280;15333;50.010;20.020;2023-03-05T15:21:13;97965.63;;;1.68;74.04
28008;BME280;15333;50.010;20.020;2023-03-05T15:24:14;97953.88;;;1.73;73.74
28008;BME280;15333;50.010;20.020;2023-03-05T15:27:15;97959.63;;;1.64;73.20
28008;BME280;15333;50.010;20.020;2023-03-05T15:30:26;97956.06;;;1.65;73.69
28008;BME280;15333;50.010;20.020;2023-03-05T15:33:28;97954.22;;;1.67;72.90
28008;BME280;15333;50.010;20.020;2023-03-05T15:36:29;97963.38;;;1.60;73.52
28008;BME280;15333;50.010;20.020;2023-03-05T15:39:30;97964.06;;;1.64;73.72
28008;BME280;15333;50.010;20.020;2023-03-05T15:42:31;97960.59;;;1.63;73.77
28008;BME280;15333;50.010;20.020;2023-03-05T15:45:32;97957.00;;;1.64;73.74
28008;BME280;15333;50.010;20.020;2023-03-05T15:48:33;97952.91;;;1.58;74.21
28008;BME280;15333;50.010;20.020;2023-03-05T15:51:34;97941.81;;;1.69;74.00
28008;BME280;15333;50.010;20.020;2023-03-05T15:54:35;97945.53;;;1.65;73.39
28008;BME280;15333;50.010;20.020;2023-03-05T15:57:44;97948.50;;;1.59;74.02
28008;BME280;15333;50.010;20.020;2023-03-05T16:00:46;97944.00;;;1.61;73.88
28008;BME280;15333;50.010;20.020;2023-03-05T16:03:47;97942.97;;;1.64;74.66
28008;BME280;15333;50.010;20.020;2023-03-05T16:06:48;97940.56;;;1.59;74.42
28008;BME280;15333;50.010;20.020;2023-03-05T16:09:50;97941.97;;;1.66;75.40
28008;BME280;15333;50.010;20.020;2023-03-05T16:12:55;97938.53;;;1.64;76.17
28008;BME280;15333;50.010;20.020;2023-03-05T16:15:57;97951.31;;;1.56;76.74
28008;BME280;15333;50.010;20.020;2023-03-05T16:18:59;97948.34;;;1.62;78.43
28008;BME280;15333;50.010;20.020;2023-03-05T16:22:00;97950.03;;;1.63;78.61
28008;BME280;15333;50.010;20.020;2023-03-05T16:25:01;97948.03;;;1.51;79.62
28008;BME280;15333;50.010;20.020;2023-03-05T16:28:02;97942.94;;;1.48;80.00
28008;BME280;15333;50.010;20.020;2023-03-05T16:31:03;97951.25;;;1.40;80.34
28008;BME280;15333;50.010;20.020;2023-03-05T16:34:04;97945.13;;;1.40;80.15
28008;BME280;15333;50.010;20.020;2023-03-05T16:37:06;97948.53;;;1.42;79.65
28008;BME280;15333;50.010;20.020;2023-03-05T16:40:09;97952.78;;;1.44;79.24
28008;BME280;15333;50.010;20.020;2023-03-05T16:43:10;97956.13;;;1.48;79.69
28008;BME280;15333;50.010;20.020;2023-03-05T16:46:12;97963.50;;;1.41;78.87
28008;BME280;15333;50.010;20.020;2023-03-05T16:49:14;97957.53;;;1.38;78.33
28008;BME280;15333;50.010;20.020;2023-03-05T16:52:15;97956.84;;;1.34;77.87
28008;BME280;15333;50.010;20.020;2023-03-05T16:55:18;97954.22;;;1.34;77.88
28008;BME280;15333;50.010;20.020;2023-03-05T16:58:18;97960.94;;;1.40;77.46
28008;BME280;15333;50.010;20.020;2023-03-05T17:01:20;97952.72;;;1.29;78.04
28008;BME280;15333;50.010;20.020;2023-03-05T17:04:21;97957.78;;;1.33;78.39
28008;BME280;15333;50.010;20.020;2023-03-05T17:07:22;97959.56;;;1.33;78.30